Startpagina
METAR-TAF:

METAR-TAF

Vliegvelden :

Conakry, Guinee

Luchthaven Conakry Internationaal

breedte: 09-34N, lengte: 013-37W, hoogte: 26 m

Actueel weer

Dit bericht is 15 minuten geleden gemaakt, om 04:00 UTC
Weinig wind
Temperatuur 25°C
Vochtigheid 74%
Druk 1010 hPa
Zicht 10 km of meer
geen wolken onder 1500 m en geen cumulonimbus

METAR: GUCY 240400Z 00000KT CAVOK 25/20 Q1010 NOSIG

Tijdstip: 04:15 (04:15 UTC)

Verwachting

Dit bericht is 5 uur en het 15 minuten geleden gemaakt, om 23:00 UTC
Verwachting geldig van 24 om 00 UTC tot 25 om 06 UTC
Wind 8 kt uit het westen
Zicht 10 km of meer
geen wolken onder 1500 m en geen cumulonimbus
Tijdelijke
van 24 om 05 UTC tot 24 om 09 UTC
Zicht: 7000 m
Verspreide wolken op 1500 ft
Wijzigt naar
van 24 om 16 UTC tot 24 om 22 UTC
Wind 10 kt uit het noordnoordwesten

TAF: GUCY 232300Z 2400/2506 26008KT CAVOK TEMPO 2405/2409 VRV02KT 7000 SCT015 BECMG 2416/2422 33010KT

Waarnemingen en weersverwachtingen van meer dan 4000 vliegvelden (METAR en TAF).

De beschikbare stations zijn de gele en rode punten op de kaart.

Ga met uw muis naar het station om de naam te zien.

Klik dan om waarnemingen en weersverwachtingen te zien.

kaart wijzigen: klik op de groene knoppen met een zwart kruis om in te zoomen, op de groene knop met een streepje om uit te zoomen of op de groene pijlen voor aangrenzende kaarten.


METAR-TAF: